Stations météo

réclame
Mon MeteoGroup
Utklippan, Suède (2632): Température de l'air & dewpoint: 14.04.2018 22:00:00 - 20.04.2018 22:00:00 (CEST)Utklippan, Suède (2632): Vitesse du vent & gusts: 14.04.2018 22:00:00 - 20.04.2018 22:00:00 (CEST)Utklippan, Suède (2632): Direction du vent: 14.04.2018 22:00:00 - 20.04.2018 22:00:00 (CEST)
Date & Time tt [°C] td [°C] ff [km/h] ff [knt] fx [km/h] fx [knt] dd
20.04.2018 22:00:00 - - - - - - -
20.04.2018 21:00:00 7,1 7,1 16 9 20 11 SW
20.04.2018 20:00:00 8,2 8,2 15 8 25 14 SSW
20.04.2018 19:00:00 8,2 8,2 14 7 24 13 S
20.04.2018 18:00:00 8,1 7,8 18 10 23 12 SSW
20.04.2018 17:00:00 8,3 7,1 16 9 24 13 S
20.04.2018 16:00:00 8,0 7,2 21 11 24 13 SSW
20.04.2018 15:00:00 7,8 7,0 18 10 23 13 SSW
20.04.2018 14:00:00 8,3 6,9 16 9 20 11 SSW
20.04.2018 13:00:00 7,7 6,6 15 8 20 11 SSW
20.04.2018 12:00:00 7,2 7,2 14 8 18 10 SSW
20.04.2018 11:00:00 8,6 7,1 7 4 13 7 SSW
20.04.2018 10:00:00 7,5 7,4 10 6 18 10 SSW
20.04.2018 09:00:00 6,7 6,7 15 8 19 10 SW
20.04.2018 08:00:00 6,7 6,7 12 7 17 9 SW
20.04.2018 07:00:00 5,4 5,4 13 7 16 9 SW
20.04.2018 06:00:00 4,5 4,5 12 6 16 8 SW
20.04.2018 05:00:00 4,5 4,5 13 7 17 9 SW
20.04.2018 04:00:00 4,6 4,6 14 8 18 10 SW
20.04.2018 03:00:00 4,9 4,9 12 6 16 9 SSW
20.04.2018 02:00:00 4,5 4,5 8 4 11 6 SSW
20.04.2018 01:00:00 5,4 5,4 4 2 7 4 SSW
20.04.2018 00:00:00 6,0 6,0 4 2 8 5 SW
19.04.2018 23:00:00 5,6 5,6 4 2 12 7 W
19.04.2018 22:00:00 6,1 6,1 9 5 24 13 WSW
19.04.2018 21:00:00 6,8 6,8 16 9 29 15 SSW
19.04.2018 20:00:00 7,5 7,5 23 13 28 15 SW
19.04.2018 19:00:00 8,0 8,0 21 11 30 16 SW
19.04.2018 18:00:00 8,1 7,5 21 12 28 15 SW
19.04.2018 17:00:00 8,3 7,9 19 10 26 14 SW
19.04.2018 16:00:00 9,3 6,6 16 9 20 11 SW
19.04.2018 15:00:00 11,9 7,4 14 7 18 10 SW
19.04.2018 14:00:00 10,9 6,8 15 8 24 13 WSW
19.04.2018 13:00:00 10,0 7,2 21 11 23 12 SW
19.04.2018 12:00:00 10,1 6,6 13 7 17 9 WSW
19.04.2018 11:00:00 8,2 6,7 16 8 18 10 WSW
19.04.2018 10:00:00 7,3 6,6 17 9 19 11 WNW
19.04.2018 09:00:00 6,9 6,9 17 9 19 10 WNW
19.04.2018 08:00:00 6,5 6,5 17 9 23 12 WNW
19.04.2018 07:00:00 5,7 5,7 16 9 20 11 WNW
19.04.2018 06:00:00 5,4 5,4 20 11 24 13 WNW
19.04.2018 05:00:00 5,3 5,3 19 10 20 11 W
19.04.2018 04:00:00 5,2 5,2 16 8 26 14 WNW
19.04.2018 03:00:00 5,8 5,8 23 13 26 14 WNW
19.04.2018 02:00:00 5,3 5,3 20 11 23 12 WNW
19.04.2018 01:00:00 5,6 5,6 20 11 22 12 WNW
19.04.2018 00:00:00 6,1 6,1 18 10 22 12 WNW
18.04.2018 23:00:00 6,3 6,3 21 11 26 14 WNW
18.04.2018 22:00:00 6,9 6,9 22 12 27 15 WNW
18.04.2018 21:00:00 7,6 6,7 24 13 28 15 WNW
18.04.2018 20:00:00 8,0 6,8 25 14 31 17 WNW
18.04.2018 19:00:00 8,3 6,1 25 13 29 16 W
18.04.2018 18:00:00 9,0 5,4 22 12 29 16 WSW
18.04.2018 17:00:00 8,8 4,8 22 12 28 15 WSW
18.04.2018 16:00:00 7,5 5,6 21 11 35 19 WSW
18.04.2018 15:00:00 7,3 4,4 29 16 37 20 SW
18.04.2018 14:00:00 8,5 4,7 27 15 35 19 SW
18.04.2018 13:00:00 8,3 3,9 29 16 36 19 SW
18.04.2018 12:00:00 8,3 4,3 24 13 30 16 SW
18.04.2018 11:00:00 7,0 4,0 20 11 27 15 SW
18.04.2018 10:00:00 7,5 3,9 21 12 26 14 SW
18.04.2018 09:00:00 6,2 4,4 18 10 22 12 SW
18.04.2018 08:00:00 5,4 5,1 14 8 17 9 SW
18.04.2018 07:00:00 4,9 4,9 11 6 18 10 SW
18.04.2018 06:00:00 4,6 4,6 14 8 17 9 SW
18.04.2018 05:00:00 4,7 4,7 13 7 18 10 SSW
18.04.2018 04:00:00 4,8 4,8 15 8 18 10 SW
18.04.2018 03:00:00 4,7 4,7 15 8 18 10 SW
18.04.2018 02:00:00 4,6 4,6 16 9 27 14 SW
18.04.2018 01:00:00 5,4 5,3 21 11 23 12 W
18.04.2018 00:00:00 4,8 4,8 16 9 24 13 WSW
17.04.2018 23:00:00 4,5 4,5 16 9 18 10 SW
17.04.2018 22:00:00 4,5 4,5 17 9 27 14 SW
17.04.2018 21:00:00 4,8 4,8 20 11 24 13 SW
17.04.2018 20:00:00 5,3 5,3 22 12 32 17 SW
17.04.2018 19:00:00 6,6 4,6 27 14 33 18 WSW
17.04.2018 18:00:00 7,5 4,6 29 15 36 19 SW
17.04.2018 17:00:00 8,6 4,6 26 14 34 18 SW
17.04.2018 16:00:00 8,8 5,2 21 11 26 14 SW
17.04.2018 15:00:00 8,6 6,0 21 11 27 14 WSW
17.04.2018 14:00:00 7,0 5,1 16 9 26 14 SW
17.04.2018 13:00:00 9,2 4,8 12 6 18 10 SW
17.04.2018 12:00:00 6,9 4,9 9 5 16 9 SW
17.04.2018 11:00:00 6,5 5,3 15 8 17 9 SW
17.04.2018 10:00:00 6,5 5,4 12 6 17 9 W
17.04.2018 09:00:00 7,0 6,3 9 5 14 8 NW
17.04.2018 08:00:00 4,8 4,8 10 6 18 10 WNW
17.04.2018 07:00:00 4,6 4,6 16 9 19 10 WNW
17.04.2018 06:00:00 3,8 3,8 12 6 15 8 WNW
17.04.2018 05:00:00 4,0 4,0 13 7 18 10 WNW
17.04.2018 04:00:00 4,0 4,0 16 9 19 10 WNW
17.04.2018 03:00:00 3,9 3,9 8 4 15 8 WNW
17.04.2018 02:00:00 4,3 4,3 12 7 14 7 WSW
17.04.2018 01:00:00 4,2 4,2 7 4 10 5 SW
17.04.2018 00:00:00 4,2 4,2 8 4 11 6 NW
16.04.2018 23:00:00 5,0 5,0 10 6 12 7 NE
16.04.2018 22:00:00 5,0 5,0 10 5 11 6 NE
16.04.2018 21:00:00 6,1 6,1 9 5 10 6 ENE
16.04.2018 20:00:00 6,3 6,2 0 0 4 2 N
16.04.2018 19:00:00 6,3 6,3 4 2 11 6 ESE
16.04.2018 18:00:00 6,0 6,0 4 2 10 6 SE
16.04.2018 17:00:00 7,1 6,7 7 4 14 7 NW
16.04.2018 16:00:00 6,5 6,1 11 6 22 12 WNW
16.04.2018 15:00:00 8,3 6,1 22 12 29 16 NNE
16.04.2018 14:00:00 7,2 6,6 23 12 28 15 NNE
16.04.2018 13:00:00 7,5 6,6 23 12 26 14 NE
16.04.2018 12:00:00 7,7 5,8 15 8 18 10 NNE
16.04.2018 11:00:00 6,5 6,5 15 8 16 9 NNE
16.04.2018 10:00:00 6,6 6,6 9 5 21 11 NNE
16.04.2018 09:00:00 6,9 6,9 23 13 28 15 NNE
16.04.2018 08:00:00 5,6 5,6 21 11 26 14 NNE
16.04.2018 07:00:00 4,6 4,6 13 7 19 10 NNE
16.04.2018 06:00:00 4,4 4,4 14 8 16 9 NNE
16.04.2018 05:00:00 4,5 4,5 13 7 17 9 N
16.04.2018 04:00:00 4,8 4,8 11 6 20 11 NNW
16.04.2018 03:00:00 4,5 4,5 13 7 21 11 NNW
16.04.2018 02:00:00 5,3 5,3 16 9 20 11 NNE
16.04.2018 01:00:00 5,3 5,3 16 8 19 10 NE
16.04.2018 00:00:00 5,1 5,1 14 8 20 11 NNW
15.04.2018 23:00:00 4,5 4,5 11 6 15 8 NNE
15.04.2018 22:00:00 4,8 4,8 10 6 16 9 NE
15.04.2018 21:00:00 4,6 4,6 15 8 16 9 E
15.04.2018 20:00:00 4,5 4,5 8 4 9 5 NE
15.04.2018 19:00:00 4,8 4,8 5 3 6 4 NE
15.04.2018 18:00:00 5,2 5,2 2 1 14 7 NW
15.04.2018 17:00:00 5,0 5,0 11 6 14 8 SE
15.04.2018 16:00:00 5,5 5,4 12 6 16 9 SE
15.04.2018 15:00:00 5,1 5,1 11 6 19 10 SE
15.04.2018 14:00:00 5,5 5,1 14 8 18 10 SE
15.04.2018 13:00:00 5,4 5,1 13 7 20 11 SE
15.04.2018 12:00:00 7,6 6,1 14 7 19 11 SSW
15.04.2018 11:00:00 5,5 5,5 18 10 25 14 SSW
15.04.2018 10:00:00 4,8 4,8 16 9 22 12 S
15.04.2018 09:00:00 4,4 4,4 15 8 22 12 S
15.04.2018 08:00:00 4,6 4,6 14 8 22 12 SSW
15.04.2018 07:00:00 4,3 4,3 16 9 22 12 SSW
15.04.2018 06:00:00 4,1 4,1 16 9 20 11 SE
15.04.2018 05:00:00 4,0 4,0 12 6 18 10 SSE
15.04.2018 04:00:00 4,1 4,1 14 7 17 9 SSE
15.04.2018 03:00:00 4,4 4,4 12 6 20 11 S
15.04.2018 02:00:00 4,1 4,1 16 8 20 11 S
15.04.2018 01:00:00 4,0 4,0 14 8 18 10 SE
15.04.2018 00:00:00 4,1 4,1 14 8 18 10 SE
14.04.2018 23:00:00 4,4 4,4 13 7 22 12 SSE
14.04.2018 22:00:00 4,5 4,5 17 9 25 14 SE

tt = Température de l'air
td = dewpoint
ff = Vitesse du vent
fx = gusts
dd = Direction du vent

stations d'obs. à proximité